createdAt,value
2018-08-31T00:00:37.524Z,14.90
2018-08-31T00:03:06.084Z,15.00
2018-08-31T00:05:46.970Z,15.00
2018-08-31T00:08:34.904Z,15.00
2018-08-31T00:11:21.267Z,15.10
2018-08-31T00:13:49.730Z,15.10
2018-08-31T00:16:18.114Z,15.10
2018-08-31T00:18:46.922Z,15.10
2018-08-31T00:21:15.631Z,15.10
2018-08-31T00:23:55.500Z,15.10
2018-08-31T00:26:35.365Z,15.10
2018-08-31T00:29:47.581Z,15.10
2018-08-31T00:33:43.260Z,15.10
2018-08-31T00:37:25.536Z,15.10
2018-08-31T00:40:10.805Z,15.20
2018-08-31T00:42:49.434Z,15.20
2018-08-31T00:45:32.546Z,15.20
2018-08-31T00:48:01.899Z,15.20
2018-08-31T00:50:30.742Z,15.20
2018-08-31T00:53:00.543Z,15.10
2018-08-31T00:55:29.241Z,15.20
2018-08-31T00:57:58.459Z,15.20
2018-08-31T01:00:27.322Z,15.20
2018-08-31T01:02:55.920Z,15.20
2018-08-31T01:05:24.776Z,15.20
2018-08-31T01:07:53.352Z,15.20
2018-08-31T01:10:23.241Z,15.10
2018-08-31T01:12:52.699Z,15.10
2018-08-31T01:15:21.161Z,15.10
2018-08-31T01:17:49.993Z,15.10
2018-08-31T01:20:18.741Z,15.10
2018-08-31T01:22:47.523Z,15.10
2018-08-31T01:25:16.735Z,15.10
2018-08-31T01:27:45.331Z,15.10
2018-08-31T01:30:14.916Z,15.10
2018-08-31T01:32:43.751Z,15.00
2018-08-31T01:35:12.672Z,15.00
2018-08-31T01:37:41.059Z,14.90
2018-08-31T01:40:09.476Z,14.90
2018-08-31T01:42:37.845Z,14.90
2018-08-31T01:45:06.388Z,14.90
2018-08-31T01:47:34.975Z,14.80
2018-08-31T01:50:03.450Z,14.80
2018-08-31T01:52:31.878Z,14.80
2018-08-31T01:55:00.302Z,14.80
2018-08-31T01:57:28.647Z,14.80
2018-08-31T01:59:56.983Z,14.80
2018-08-31T02:02:25.427Z,14.80
2018-08-31T02:04:54.652Z,14.80
2018-08-31T02:07:23.216Z,14.80
2018-08-31T02:09:51.661Z,14.80
2018-08-31T02:12:20.191Z,14.80
2018-08-31T02:14:48.583Z,14.70
2018-08-31T02:17:16.988Z,14.80
2018-08-31T02:19:45.674Z,14.90
2018-08-31T02:22:14.307Z,14.90
2018-08-31T02:24:42.965Z,14.90
2018-08-31T02:27:11.352Z,14.80
2018-08-31T02:29:39.904Z,14.70
2018-08-31T02:32:08.254Z,14.70
2018-08-31T02:34:36.633Z,14.80
2018-08-31T02:37:05.196Z,14.80
2018-08-31T02:39:33.627Z,14.80
2018-08-31T02:42:02.190Z,14.70
2018-08-31T02:44:30.589Z,14.70
2018-08-31T02:46:58.997Z,14.70
2018-08-31T02:49:27.433Z,14.60
2018-08-31T02:51:55.769Z,14.60
2018-08-31T02:54:24.220Z,14.70
2018-08-31T02:56:52.631Z,14.60
2018-08-31T02:59:21.077Z,14.60
2018-08-31T03:01:49.521Z,14.60
2018-08-31T03:04:18.132Z,14.60
2018-08-31T03:06:46.657Z,14.60
2018-08-31T03:09:15.510Z,14.50
2018-08-31T03:11:45.215Z,14.50
2018-08-31T03:14:13.735Z,14.50
2018-08-31T03:16:42.171Z,14.60
2018-08-31T03:19:10.656Z,14.60
2018-08-31T03:21:39.021Z,14.60
2018-08-31T03:24:07.439Z,14.60
2018-08-31T03:26:35.846Z,14.50
2018-08-31T03:29:04.367Z,14.60
2018-08-31T03:31:32.797Z,14.60
2018-08-31T03:34:01.297Z,14.60
2018-08-31T03:36:29.721Z,14.60
2018-08-31T03:38:58.127Z,14.70
2018-08-31T03:41:26.540Z,14.70
2018-08-31T03:43:54.928Z,14.70
2018-08-31T03:46:23.327Z,14.70
2018-08-31T03:48:51.722Z,14.70
2018-08-31T03:51:20.296Z,14.70
2018-08-31T03:53:48.754Z,14.70
2018-08-31T03:56:17.206Z,14.70
2018-08-31T03:58:45.718Z,14.70
2018-08-31T04:01:14.241Z,14.70
2018-08-31T04:03:42.785Z,14.70
2018-08-31T04:06:11.381Z,14.60
2018-08-31T04:08:39.789Z,14.60
2018-08-31T04:11:08.189Z,14.60
2018-08-31T04:13:36.586Z,14.60
2018-08-31T04:16:04.957Z,14.60
2018-08-31T04:18:33.385Z,14.50
2018-08-31T04:21:02.436Z,14.50
2018-08-31T04:23:31.839Z,14.50
2018-08-31T04:26:00.282Z,14.50
2018-08-31T04:28:28.655Z,14.50
2018-08-31T04:31:03.919Z,14.50
2018-08-31T04:33:32.303Z,14.40
2018-08-31T04:36:00.734Z,14.50
2018-08-31T04:38:29.143Z,14.40
2018-08-31T04:40:57.617Z,14.40
2018-08-31T04:43:26.022Z,14.50
2018-08-31T04:45:55.481Z,14.50
2018-08-31T04:48:24.291Z,14.50
2018-08-31T04:50:52.723Z,14.50
2018-08-31T04:53:21.446Z,14.50
2018-08-31T04:55:49.809Z,14.50
2018-08-31T04:58:18.280Z,14.50
2018-08-31T05:00:46.684Z,14.50
2018-08-31T05:03:15.416Z,14.50
2018-08-31T05:05:43.929Z,14.50
2018-08-31T05:08:12.475Z,14.60
2018-08-31T05:10:41.006Z,14.60
2018-08-31T05:13:09.441Z,14.60
2018-08-31T05:15:38.755Z,14.60
2018-08-31T05:18:07.136Z,14.60
2018-08-31T05:20:35.542Z,14.70
2018-08-31T05:23:04.022Z,14.70
2018-08-31T05:25:32.379Z,14.70
2018-08-31T05:28:00.784Z,14.70
2018-08-31T05:30:29.196Z,14.80
2018-08-31T05:32:57.964Z,14.80
2018-08-31T05:35:26.381Z,14.90
2018-08-31T05:37:54.816Z,14.90
2018-08-31T05:40:23.911Z,15.00
2018-08-31T05:42:53.293Z,15.00
2018-08-31T05:45:21.718Z,15.10
2018-08-31T05:47:50.340Z,15.20
2018-08-31T05:50:18.813Z,15.30
2018-08-31T05:52:47.210Z,15.30
2018-08-31T05:55:15.850Z,15.40
2018-08-31T05:57:44.447Z,15.40
2018-08-31T06:00:13.303Z,15.50
2018-08-31T06:02:41.936Z,15.50
2018-08-31T06:05:16.904Z,15.50
2018-08-31T06:07:45.461Z,15.50
2018-08-31T06:10:13.977Z,15.60
2018-08-31T06:12:42.687Z,15.70
2018-08-31T06:15:11.844Z,15.70
2018-08-31T06:17:40.470Z,15.70
2018-08-31T06:20:09.307Z,15.70
2018-08-31T06:22:37.936Z,15.80
2018-08-31T06:25:06.528Z,15.80
2018-08-31T06:27:35.145Z,15.80
2018-08-31T06:30:03.701Z,15.90
2018-08-31T06:32:32.329Z,15.90
2018-08-31T06:35:00.717Z,15.90
2018-08-31T06:37:29.112Z,15.80
2018-08-31T06:39:58.246Z,15.90
2018-08-31T06:42:27.450Z,15.90
2018-08-31T06:44:56.605Z,15.90
2018-08-31T06:47:25.259Z,16.00
2018-08-31T06:49:54.233Z,16.00
2018-08-31T06:52:22.814Z,16.00
2018-08-31T06:54:51.192Z,16.00
2018-08-31T06:57:19.951Z,16.00
2018-08-31T06:59:49.279Z,16.00
2018-08-31T07:02:18.449Z,16.10
2018-08-31T07:04:47.627Z,16.10
2018-08-31T07:07:16.207Z,16.20
2018-08-31T07:09:44.677Z,16.20
2018-08-31T07:12:13.405Z,16.30
2018-08-31T07:14:42.652Z,16.30
2018-08-31T07:17:11.119Z,16.30
2018-08-31T07:19:39.521Z,16.40
2018-08-31T07:22:07.920Z,16.40
2018-08-31T07:24:36.355Z,16.50
2018-08-31T07:27:04.850Z,16.60
2018-08-31T07:29:33.290Z,16.70
2018-08-31T07:32:02.675Z,16.80
2018-08-31T07:34:31.521Z,17.40
2018-08-31T07:37:00.177Z,17.90
2018-08-31T07:39:28.897Z,18.00
2018-08-31T07:41:57.314Z,18.40
2018-08-31T07:44:26.002Z,19.00
2018-08-31T07:46:54.393Z,19.10
2018-08-31T07:49:22.979Z,18.90
2018-08-31T07:51:52.321Z,18.80
2018-08-31T07:54:21.566Z,19.30
2018-08-31T07:56:50.808Z,19.20
2018-08-31T07:59:20.053Z,19.20
2018-08-31T08:01:49.370Z,19.20
2018-08-31T08:04:18.597Z,19.40
2018-08-31T08:06:48.023Z,19.30
2018-08-31T08:09:17.745Z,19.10
2018-08-31T08:11:46.758Z,18.90
2018-08-31T08:14:16.337Z,18.80
2018-08-31T08:16:45.752Z,18.70
2018-08-31T08:19:15.196Z,18.70
2018-08-31T08:21:44.405Z,18.60
2018-08-31T08:24:13.650Z,18.60
2018-08-31T08:26:43.132Z,18.50
2018-08-31T08:29:12.203Z,18.60
2018-08-31T08:31:41.139Z,18.50
2018-08-31T08:34:09.826Z,18.50
2018-08-31T08:36:39.060Z,18.50
2018-08-31T08:39:08.782Z,18.50
2018-08-31T08:41:37.865Z,18.50
2018-08-31T08:44:07.318Z,18.50
2018-08-31T08:46:36.402Z,18.60
2018-08-31T08:49:05.509Z,18.70
2018-08-31T08:51:48.324Z,18.60
2018-08-31T08:54:17.460Z,18.70
2018-08-31T08:56:46.524Z,18.80
2018-08-31T08:59:15.757Z,18.80
2018-08-31T09:01:44.906Z,18.80
2018-08-31T09:04:14.087Z,18.80
2018-08-31T09:06:42.680Z,18.80
2018-08-31T09:09:11.780Z,18.90
2018-08-31T09:11:40.334Z,18.90
2018-08-31T09:14:09.128Z,19.00
2018-08-31T09:16:37.604Z,19.30
2018-08-31T09:19:06.249Z,19.40
2018-08-31T09:21:34.657Z,19.60
2018-08-31T09:24:03.404Z,19.80
2018-08-31T09:26:31.867Z,19.90
2018-08-31T09:29:00.412Z,19.90
2018-08-31T09:31:29.519Z,20.10
2018-08-31T09:33:58.292Z,20.10
2018-08-31T09:36:27.376Z,20.20
2018-08-31T09:38:55.876Z,20.40
2018-08-31T09:41:24.248Z,20.20
2018-08-31T09:44:08.765Z,19.90
2018-08-31T09:46:55.953Z,19.70
2018-08-31T09:49:25.090Z,19.60
2018-08-31T09:51:53.489Z,19.60
2018-08-31T09:54:22.268Z,19.70
2018-08-31T09:56:50.751Z,19.80
2018-08-31T10:02:37.815Z,20.30
2018-08-31T10:05:31.841Z,20.30
2018-08-31T10:10:57.949Z,20.20
2018-08-31T10:13:27.193Z,20.30
2018-08-31T10:15:55.690Z,20.40
2018-08-31T10:18:24.121Z,20.50
2018-08-31T10:20:52.884Z,20.60
2018-08-31T10:23:21.376Z,20.70
2018-08-31T10:25:49.810Z,20.90
2018-08-31T10:28:18.329Z,20.80
2018-08-31T10:30:46.903Z,20.80
2018-08-31T10:33:15.726Z,20.80
2018-08-31T10:35:44.346Z,20.90
2018-08-31T10:38:12.897Z,21.00
2018-08-31T10:40:41.465Z,21.00
2018-08-31T10:43:10.044Z,21.10
2018-08-31T10:45:38.627Z,21.10
2018-08-31T10:48:07.004Z,20.90
2018-08-31T10:50:35.512Z,20.80
2018-08-31T10:53:03.940Z,20.80
2018-08-31T10:55:32.335Z,20.80
2018-08-31T10:58:00.792Z,20.80
2018-08-31T11:00:29.326Z,20.80
2018-08-31T11:02:57.764Z,20.80
2018-08-31T11:05:26.192Z,20.90
2018-08-31T11:07:54.607Z,20.80
2018-08-31T11:10:23.153Z,20.60
2018-08-31T11:12:51.563Z,20.50
2018-08-31T11:15:20.129Z,20.50
2018-08-31T11:17:48.514Z,20.60
2018-08-31T11:20:16.990Z,20.60
2018-08-31T11:22:45.778Z,20.40
2018-08-31T11:25:15.717Z,20.40
2018-08-31T11:27:44.297Z,20.40
2018-08-31T11:30:12.972Z,20.40
2018-08-31T11:32:41.972Z,20.50
2018-08-31T11:35:10.497Z,20.50
2018-08-31T11:37:39.135Z,20.40
2018-08-31T11:40:07.623Z,20.40
2018-08-31T11:42:36.012Z,20.40
2018-08-31T11:45:04.955Z,20.20
2018-08-31T11:47:33.354Z,20.30
2018-08-31T11:50:01.827Z,20.40
2018-08-31T11:52:30.615Z,20.70
2018-08-31T11:54:59.760Z,20.80
2018-08-31T11:57:28.400Z,21.00
2018-08-31T11:59:57.259Z,20.90
2018-08-31T12:02:25.666Z,21.00
2018-08-31T12:04:54.138Z,20.90
2018-08-31T12:07:22.872Z,20.90
2018-08-31T12:09:51.331Z,20.90
2018-08-31T12:12:19.775Z,20.90
2018-08-31T12:14:48.311Z,20.90
2018-08-31T12:17:16.912Z,20.90
2018-08-31T12:19:45.808Z,20.80
2018-08-31T12:22:14.224Z,20.70
2018-08-31T12:24:42.997Z,20.80
2018-08-31T12:27:12.464Z,20.90
2018-08-31T12:29:41.144Z,20.90
2018-08-31T12:32:09.677Z,20.90
2018-08-31T12:34:38.091Z,20.90
2018-08-31T12:37:06.628Z,20.80
2018-08-31T12:39:35.071Z,20.70
2018-08-31T12:42:03.578Z,20.70
2018-08-31T12:44:31.975Z,20.70
2018-08-31T12:47:00.358Z,20.60
2018-08-31T12:49:28.754Z,20.60
2018-08-31T12:51:57.872Z,20.60
2018-08-31T12:54:26.308Z,20.60
2018-08-31T12:56:55.192Z,20.60
2018-08-31T12:59:24.091Z,20.70
2018-08-31T13:01:52.561Z,20.80
2018-08-31T13:04:21.004Z,20.90
2018-08-31T13:06:50.038Z,20.80
2018-08-31T13:09:18.439Z,20.90
2018-08-31T13:11:46.922Z,21.00
2018-08-31T13:14:15.435Z,21.00
2018-08-31T13:16:43.940Z,21.00
2018-08-31T13:19:12.471Z,21.10
2018-08-31T13:21:40.958Z,21.10
2018-08-31T13:24:09.389Z,21.10
2018-08-31T13:26:37.764Z,21.10
2018-08-31T13:29:06.197Z,21.20
2018-08-31T13:31:34.701Z,21.20
2018-08-31T13:34:03.391Z,21.30
2018-08-31T13:36:31.880Z,21.30
2018-08-31T13:39:00.347Z,21.30
2018-08-31T13:41:28.751Z,21.50
2018-08-31T13:43:57.169Z,21.60
2018-08-31T13:46:25.595Z,21.70
2018-08-31T13:48:54.058Z,21.80
2018-08-31T13:51:22.523Z,21.80
2018-08-31T13:53:51.340Z,21.80
2018-08-31T13:56:19.942Z,21.80
2018-08-31T13:58:48.407Z,21.60
2018-08-31T14:01:16.908Z,21.40
2018-08-31T14:03:46.069Z,21.20
2018-08-31T14:06:14.482Z,21.00
2018-08-31T14:08:43.126Z,21.00
2018-08-31T14:11:11.839Z,20.90
2018-08-31T14:13:40.447Z,20.80
2018-08-31T14:16:09.032Z,20.70
2018-08-31T14:18:37.578Z,20.70
2018-08-31T14:21:06.149Z,20.70
2018-08-31T14:23:34.552Z,20.60
2018-08-31T14:26:03.184Z,20.60
2018-08-31T14:28:31.781Z,20.50
2018-08-31T14:31:00.288Z,20.40
2018-08-31T14:33:28.939Z,20.50
2018-08-31T14:35:57.370Z,20.70
2018-08-31T14:38:25.896Z,20.90
2018-08-31T14:40:54.665Z,21.00
2018-08-31T14:43:23.435Z,21.00
2018-08-31T14:45:51.998Z,21.20
2018-08-31T14:48:20.559Z,21.20
2018-08-31T14:50:49.163Z,21.30
2018-08-31T14:53:17.720Z,21.30
2018-08-31T14:55:46.841Z,21.30
2018-08-31T14:58:15.529Z,21.10
2018-08-31T15:00:44.079Z,21.00
2018-08-31T15:03:12.761Z,20.90
2018-08-31T15:05:41.511Z,20.90
2018-08-31T15:08:09.949Z,20.90
2018-08-31T15:10:38.467Z,20.90
2018-08-31T15:13:06.936Z,20.90
2018-08-31T15:15:35.280Z,20.80
2018-08-31T15:18:03.772Z,20.90
2018-08-31T15:20:32.223Z,20.90
2018-08-31T15:23:00.637Z,21.00
2018-08-31T15:25:29.059Z,20.90
2018-08-31T15:27:57.432Z,20.90
2018-08-31T15:30:25.875Z,20.90
2018-08-31T15:32:54.360Z,20.90
2018-08-31T15:35:22.799Z,20.80
2018-08-31T15:37:51.168Z,20.80
2018-08-31T15:40:19.651Z,20.80
2018-08-31T15:42:48.445Z,20.90
2018-08-31T15:45:16.820Z,21.00
2018-08-31T15:47:45.285Z,20.90
2018-08-31T15:50:13.761Z,21.00
2018-08-31T15:52:42.201Z,20.90
2018-08-31T15:55:10.618Z,21.00
2018-08-31T15:57:39.030Z,21.00
2018-08-31T16:00:08.930Z,21.00
2018-08-31T16:02:37.298Z,20.90
2018-08-31T16:05:05.768Z,20.90
2018-08-31T16:07:34.276Z,20.80
2018-08-31T16:10:02.848Z,20.80
2018-08-31T16:12:31.362Z,20.90
2018-08-31T16:15:00.000Z,20.80
2018-08-31T16:17:28.440Z,20.80
2018-08-31T16:19:56.865Z,20.70
2018-08-31T16:22:25.709Z,20.70
2018-08-31T16:24:54.214Z,20.70
2018-08-31T16:27:22.727Z,20.60
2018-08-31T16:29:51.346Z,20.60
2018-08-31T16:32:19.849Z,20.50
2018-08-31T16:34:48.405Z,20.40
2018-08-31T16:37:16.954Z,20.40
2018-08-31T16:39:45.488Z,20.40
2018-08-31T16:42:14.331Z,20.30
2018-08-31T16:44:42.856Z,20.30
2018-08-31T16:47:11.375Z,20.20
2018-08-31T16:49:53.914Z,20.20
2018-08-31T16:52:52.445Z,20.20
2018-08-31T16:55:21.940Z,20.10
2018-08-31T16:57:50.379Z,20.10
2018-08-31T17:00:19.066Z,20.00
2018-08-31T17:02:47.671Z,19.90
2018-08-31T17:05:16.387Z,19.90
2018-08-31T17:07:44.983Z,19.80
2018-08-31T17:10:13.339Z,19.80
2018-08-31T17:12:42.276Z,19.80
2018-08-31T17:18:29.336Z,19.70
2018-08-31T17:20:57.781Z,19.60
2018-08-31T17:23:26.378Z,19.50
2018-08-31T17:25:54.979Z,19.50
2018-08-31T17:28:28.928Z,19.50
2018-08-31T17:31:02.596Z,19.40
2018-08-31T17:33:36.364Z,19.40
2018-08-31T17:36:10.103Z,19.30
2018-08-31T17:38:38.852Z,19.30
2018-08-31T17:41:14.731Z,19.20
2018-08-31T17:43:43.839Z,19.20
2018-08-31T17:46:12.538Z,19.10
2018-08-31T17:48:41.400Z,19.10
2018-08-31T17:51:10.101Z,19.10
2018-08-31T17:53:38.539Z,19.00
2018-08-31T17:56:07.004Z,19.00
2018-08-31T17:58:35.553Z,18.90
2018-08-31T18:01:04.145Z,18.90
2018-08-31T18:03:32.809Z,18.90
2018-08-31T18:06:01.895Z,18.80
2018-08-31T18:08:30.364Z,18.70
2018-08-31T18:10:59.175Z,18.70
2018-08-31T18:13:27.753Z,18.60
2018-08-31T18:15:56.333Z,18.60
2018-08-31T18:18:25.034Z,18.50
2018-08-31T18:20:53.717Z,18.50
2018-08-31T18:23:23.788Z,18.60
2018-08-31T18:25:52.360Z,18.50
2018-08-31T18:28:22.843Z,18.50
2018-08-31T18:30:51.571Z,18.40
2018-08-31T18:33:23.437Z,18.50
2018-08-31T18:35:52.581Z,18.40
2018-08-31T18:38:23.596Z,18.40
2018-08-31T18:40:52.861Z,18.50
2018-08-31T18:43:22.032Z,18.40
2018-08-31T18:45:54.197Z,18.40
2018-08-31T18:48:23.172Z,18.40
2018-08-31T18:50:51.613Z,18.40
2018-08-31T18:53:26.635Z,18.30
2018-08-31T18:55:57.339Z,18.30
2018-08-31T18:58:27.657Z,18.20
2018-08-31T19:00:58.441Z,18.20
2018-08-31T19:03:28.425Z,18.20
2018-08-31T19:05:58.805Z,18.10
2018-08-31T19:08:30.351Z,18.00
2018-08-31T19:10:59.981Z,17.90
2018-08-31T19:13:38.498Z,17.90
2018-08-31T19:16:08.119Z,17.80
2018-08-31T19:18:38.086Z,17.80
2018-08-31T19:21:07.770Z,17.80
2018-08-31T19:23:36.925Z,17.70
2018-08-31T19:26:06.185Z,17.70
2018-08-31T19:28:35.823Z,17.70
2018-08-31T19:31:05.735Z,17.70
2018-08-31T19:33:35.384Z,17.60
2018-08-31T19:36:04.941Z,17.60
2018-08-31T19:38:34.645Z,17.60
2018-08-31T19:41:04.936Z,17.50
2018-08-31T19:43:36.391Z,17.60
2018-08-31T19:46:05.742Z,17.60
2018-08-31T19:48:35.181Z,17.60
2018-08-31T19:51:04.204Z,17.60
2018-08-31T19:53:35.027Z,17.50
2018-08-31T19:56:04.527Z,17.50
2018-08-31T19:58:34.036Z,17.60
2018-08-31T20:01:03.202Z,17.60
2018-08-31T20:03:32.367Z,17.60
2018-08-31T20:06:01.462Z,17.60
2018-08-31T20:08:29.961Z,17.60
2018-08-31T20:10:58.669Z,17.60
2018-08-31T20:13:27.491Z,17.50
2018-08-31T20:15:55.973Z,17.50
2018-08-31T20:18:24.511Z,17.50
2018-08-31T20:20:53.074Z,17.50
2018-08-31T20:23:21.666Z,17.50
2018-08-31T20:25:50.125Z,17.50
2018-08-31T20:28:18.632Z,17.40
2018-08-31T20:30:47.152Z,17.40
2018-08-31T20:33:17.964Z,17.30
2018-08-31T20:35:48.146Z,17.30
2018-08-31T20:40:58.783Z,17.20
2018-08-31T20:43:28.547Z,17.20
2018-08-31T20:45:57.089Z,17.20
2018-08-31T20:48:25.545Z,17.10
2018-08-31T20:50:56.419Z,17.10
2018-08-31T20:53:25.435Z,17.10
2018-08-31T20:55:53.956Z,17.00
2018-08-31T20:58:23.448Z,17.00
2018-08-31T21:00:52.793Z,16.90
2018-08-31T21:03:21.525Z,16.90
2018-08-31T21:05:51.051Z,16.80
2018-08-31T21:08:20.147Z,16.80
2018-08-31T21:10:48.719Z,16.80
2018-08-31T21:13:18.307Z,16.90
2018-08-31T21:15:47.112Z,16.80
2018-08-31T21:18:16.213Z,16.80
2018-08-31T21:20:45.119Z,16.80
2018-08-31T21:23:13.840Z,16.80
2018-08-31T21:25:46.409Z,16.80
2018-08-31T21:28:15.796Z,16.70
2018-08-31T21:30:45.064Z,16.70
2018-08-31T21:33:14.461Z,16.70
2018-08-31T21:35:42.994Z,16.70
2018-08-31T21:38:12.743Z,16.70
2018-08-31T21:40:41.472Z,16.70
2018-08-31T21:43:12.939Z,16.70
2018-08-31T21:45:41.485Z,16.60
2018-08-31T21:48:10.327Z,16.60
2018-08-31T21:50:38.988Z,16.50
2018-08-31T21:53:07.470Z,16.50
2018-08-31T21:55:36.192Z,16.40
2018-08-31T21:58:05.098Z,16.40
2018-08-31T22:00:40.464Z,16.40
2018-08-31T22:03:09.968Z,16.30
2018-08-31T22:05:38.694Z,16.20
2018-08-31T22:08:07.807Z,16.20
2018-08-31T22:10:39.530Z,16.10
2018-08-31T22:13:08.606Z,16.10
2018-08-31T22:15:37.170Z,16.10
2018-08-31T22:21:16.442Z,16.00
2018-08-31T22:23:45.146Z,16.00
2018-08-31T22:26:17.468Z,16.00
2018-08-31T22:28:46.799Z,16.00
2018-08-31T22:31:15.533Z,16.00
2018-08-31T22:33:46.400Z,15.90
2018-08-31T22:36:15.340Z,15.90
2018-08-31T22:38:44.763Z,15.80
2018-08-31T22:41:14.215Z,15.80
2018-08-31T22:43:48.409Z,15.70
2018-08-31T22:46:17.400Z,15.70
2018-08-31T22:48:46.195Z,15.60
2018-08-31T22:51:15.421Z,15.50
2018-08-31T22:53:44.782Z,15.50
2018-08-31T22:56:13.351Z,15.50
2018-08-31T22:58:42.665Z,15.50
2018-08-31T23:01:11.225Z,15.50
2018-08-31T23:03:39.798Z,15.50
2018-08-31T23:06:08.288Z,15.40
2018-08-31T23:08:36.641Z,15.40
2018-08-31T23:11:08.864Z,15.30
2018-08-31T23:13:38.152Z,15.40
2018-08-31T23:16:07.057Z,15.40
2018-08-31T23:18:35.496Z,15.40
2018-08-31T23:21:04.000Z,15.30
2018-08-31T23:23:37.891Z,15.30
2018-08-31T23:26:06.348Z,15.30
2018-08-31T23:28:34.753Z,15.30
2018-08-31T23:31:03.204Z,15.30
2018-08-31T23:33:31.640Z,15.30
2018-08-31T23:36:00.165Z,15.30
2018-08-31T23:38:28.651Z,15.30
2018-08-31T23:40:57.144Z,15.30
2018-08-31T23:43:25.665Z,15.30
2018-08-31T23:45:54.362Z,15.30
2018-08-31T23:48:22.892Z,15.30
2018-08-31T23:50:51.371Z,15.40
2018-08-31T23:53:19.884Z,15.40
2018-08-31T23:55:48.291Z,15.30
2018-08-31T23:58:16.704Z,15.30
